Time;durP1;ratioP1;P1;durP2;ratioP2;P2;SDS_P1;SDS_P2;PMS_P1;PMS_P2;Temp;Humidity;BMP_temperature;BMP_pressure;BME280_temperature;BME280_humidity;BME280_pressure;Samples;Min_cycle;Max_cycle;Signal;HPM_P1;HPM_P2
2022/03/01 00:01:18;;;;;;;9.45;5.18;;;;;;;-1.75;58.97;100964.41;4997693;28;20033;-75
2022/03/01 00:03:44;;;;;;;12.13;5.35;;;;;;;-1.69;58.51;100967.38;5013478;28;20045;-75
2022/03/01 00:06:10;;;;;;;13.10;5.65;;;;;;;-1.77;58.41;100971.94;5013907;28;20029;-75
2022/03/01 00:08:35;;;;;;;11.80;5.18;;;;;;;-1.86;58.88;100984.94;5014389;28;20037;-74
2022/03/01 00:11:01;;;;;;;11.48;5.50;;;;;;;-1.90;59.22;100974.47;5014236;28;20041;-75
2022/03/01 00:13:27;;;;;;;9.65;5.60;;;;;;;-1.90;59.46;100972.78;5029344;28;20033;-74
2022/03/01 00:15:52;;;;;;;10.95;5.00;;;;;;;-1.84;59.52;100967.22;4997075;28;20392;-74
2022/03/01 00:18:18;;;;;;;10.40;5.68;;;;;;;-1.84;58.88;100972.31;5031611;28;20412;-74
2022/03/01 00:20:44;;;;;;;9.80;4.65;;;;;;;-1.79;59.17;100970.94;5029916;28;20038;-75
2022/03/01 00:23:09;;;;;;;12.55;5.25;;;;;;;-1.85;58.53;100970.56;5031546;28;20041;-75
2022/03/01 00:25:36;;;;;;;11.88;5.45;;;;;;;-1.92;58.77;100964.19;5029825;28;20056;-73
2022/03/01 00:28:02;;;;;;;9.48;4.85;;;;;;;-1.94;58.64;100959.78;5013764;28;20381;-75
2022/03/01 00:30:27;;;;;;;9.27;5.13;;;;;;;-2.01;58.86;100958.50;5029905;28;20068;-75
2022/03/01 00:32:53;;;;;;;11.45;4.82;;;;;;;-2.06;58.67;100953.09;5013508;28;20048;-75
2022/03/01 00:35:19;;;;;;;12.07;5.00;;;;;;;-2.08;59.06;100961.41;4997140;28;20711;-75
2022/03/01 00:37:45;;;;;;;9.32;4.90;;;;;;;-2.15;58.92;100955.03;5030281;28;20135;-74
2022/03/01 00:40:11;;;;;;;10.70;5.28;;;;;;;-2.18;58.75;100948.84;5013313;28;20041;-74
2022/03/01 00:42:36;;;;;;;;;;;;;;;-2.26;59.00;100955.94;5014195;28;20424;-74
2022/03/01 00:45:02;;;;;;;9.68;5.10;;;;;;;-2.23;58.71;100955.28;5013656;28;19920;-74
2022/03/01 00:47:28;;;;;;;;;;;;;;;-2.26;58.97;100950.88;5030314;28;20646;-74
2022/03/01 00:49:54;;;;;;;11.27;5.38;;;;;;;-2.32;58.92;100953.00;5030194;28;19979;-72
2022/03/01 00:52:19;;;;;;;8.43;5.00;;;;;;;-2.37;59.13;100957.78;5029857;28;20497;-73
2022/03/01 00:54:45;;;;;;;8.68;5.00;;;;;;;-2.38;59.26;100955.16;4996598;28;20056;-74
2022/03/01 00:57:11;;;;;;;12.68;5.15;;;;;;;-2.43;59.15;100949.75;5030970;28;20096;-74
2022/03/01 00:59:37;;;;;;;;;;;;;;;-2.50;58.98;100954.28;5031361;28;20410;-74
2022/03/01 01:02:02;;;;;;;11.60;5.78;;;;;;;-2.49;59.40;100948.44;5029590;28;19916;-73
2022/03/01 01:04:28;;;;;;;10.15;5.80;;;;;;;-2.51;59.26;100950.00;5013346;28;20485;-74
2022/03/01 01:06:54;;;;;;;10.88;6.32;;;;;;;-2.49;59.64;100943.34;5013017;28;20046;-74
2022/03/01 01:09:19;;;;;;;12.98;6.22;;;;;;;-2.51;59.32;100953.41;4980800;28;20036;-76
2022/03/01 01:11:45;;;;;;;10.98;6.43;;;;;;;-2.59;58.69;100945.25;5029548;28;20409;-74
2022/03/01 01:14:11;;;;;;;11.90;7.00;;;;;;;-2.61;59.35;100961.19;5029763;28;20041;-74
2022/03/01 01:16:36;;;;;;;11.75;7.05;;;;;;;-2.65;59.41;100949.03;5033160;28;20049;-73
2022/03/01 01:19:02;;;;;;;11.80;7.20;;;;;;;-2.67;59.12;100956.53;5017323;28;20037;-73
2022/03/01 01:22:39;;;;;;;13.90;7.70;;;;;;;-2.73;59.41;100951.03;5033377;28;20052;-75
2022/03/01 01:24:14;;;;;;;13.60;8.27;;;;;;;-2.75;59.66;100950.03;5019616;28;20413;-74
2022/03/01 01:26:39;;;;;;;14.48;7.90;;;;;;;-2.78;59.18;100954.94;5033522;28;20049;-75
2022/03/01 01:29:05;;;;;;;14.13;7.70;;;;;;;-2.77;59.53;100950.72;5034631;28;20223;-75
2022/03/01 01:31:31;;;;;;;14.40;7.43;;;;;;;-2.77;59.68;100945.66;5000154;28;20370;-74
2022/03/01 01:33:56;;;;;;;13.23;7.25;;;;;;;-2.76;59.71;100939.78;5000326;28;20103;-75
2022/03/01 01:36:25;;;;;;;10.93;6.60;;;;;;;-2.72;59.17;100941.75;5016721;28;20111;-75
2022/03/01 01:38:52;;;;;;;9.32;5.90;;;;;;;-2.77;59.59;100938.91;5016759;28;20484;-74
2022/03/01 01:41:17;;;;;;;12.77;6.40;;;;;;;-2.80;59.59;100938.69;5016600;28;20806;-74
2022/03/01 01:43:43;;;;;;;10.05;5.55;;;;;;;-2.84;59.59;100942.69;5016503;28;20116;-74
2022/03/01 01:46:09;;;;;;;10.63;6.35;;;;;;;-2.93;59.70;100948.75;5032801;28;20037;-74
2022/03/01 01:48:34;;;;;;;9.13;4.90;;;;;;;-2.93;59.75;100947.13;5016519;28;20041;-74
2022/03/01 01:51:00;;;;;;;12.15;5.47;;;;;;;-2.98;59.42;100945.03;5016601;28;20100;-74
2022/03/01 01:53:26;;;;;;;13.00;4.80;;;;;;;-3.00;60.16;100947.47;5032451;28;20053;-74
2022/03/01 01:55:51;;;;;;;7.20;4.15;;;;;;;-3.01;59.79;100944.81;5000056;28;20064;-74
2022/03/01 01:58:18;;;;;;;9.07;4.63;;;;;;;-3.04;60.16;100944.59;5016210;28;20049;-75
2022/03/01 02:00:44;;;;;;;11.00;4.82;;;;;;;-3.02;59.96;100945.56;5032834;28;20068;-75
2022/03/01 02:03:10;;;;;;;14.82;5.00;;;;;;;-3.06;59.51;100952.13;5032599;28;20389;-73
2022/03/01 02:05:35;;;;;;;10.75;4.38;;;;;;;-3.08;60.59;100952.00;4998503;28;20032;-74
2022/03/01 02:08:01;;;;;;;8.45;4.38;;;;;;;-3.02;59.96;100953.19;5032238;28;20049;-76
2022/03/01 02:10:27;;;;;;;7.85;4.43;;;;;;;-3.01;59.87;100947.38;5032707;28;20037;-75
2022/03/01 02:12:53;;;;;;;10.98;4.68;;;;;;;-2.99;59.88;100945.81;5033501;28;20044;-74
2022/03/01 02:15:19;;;;;;;9.52;4.40;;;;;;;-2.95;59.87;100942.72;5032536;28;20497;-75
2022/03/01 02:17:44;;;;;;;8.77;4.63;;;;;;;-2.96;60.05;100953.66;5016335;28;20049;-75
2022/03/01 02:20:16;;;;;;;10.35;4.35;;;;;;;-3.04;59.43;100952.22;5033767;28;20418;-75
2022/03/01 02:22:41;;;;;;;8.00;4.55;;;;;;;-3.06;60.28;100954.66;5033169;28;20045;-75
2022/03/01 02:25:07;;;;;;;9.52;4.20;;;;;;;-3.02;59.72;100949.03;5033595;28;20397;-74
2022/03/01 02:27:33;;;;;;;8.25;4.35;;;;;;;-3.02;60.04;100955.72;5031920;28;20041;-75
2022/03/01 02:29:59;;;;;;;11.82;4.47;;;;;;;-3.07;59.37;100952.88;5032227;28;20176;-75
2022/03/01 02:32:24;;;;;;;8.63;4.63;;;;;;;-3.13;60.31;100955.84;5032114;28;20039;-75
2022/03/01 02:34:50;;;;;;;8.07;4.32;;;;;;;-3.18;60.27;100947.03;5032066;28;20041;-75
2022/03/01 02:37:16;;;;;;;9.27;5.63;;;;;;;-3.17;59.77;100946.25;5032042;28;20245;-76
2022/03/01 02:39:41;;;;;;;9.25;4.95;;;;;;;-3.17;60.44;100948.78;5032148;28;20492;-74
2022/03/01 02:42:07;;;;;;;10.65;4.93;;;;;;;-3.20;60.25;100951.13;5031814;28;20381;-74
2022/03/01 02:44:33;;;;;;;11.85;5.28;;;;;;;-3.18;60.02;100947.03;5032169;28;20029;-74
2022/03/01 02:46:58;;;;;;;11.02;6.18;;;;;;;-3.17;60.33;100956.41;5015019;28;20045;-74
2022/03/01 02:49:24;;;;;;;10.18;5.60;;;;;;;-3.25;59.99;100949.94;5015439;28;20045;-75
2022/03/01 02:51:50;;;;;;;13.02;6.20;;;;;;;-3.19;60.20;100955.44;5015332;28;20049;-73
2022/03/01 02:54:15;;;;;;;11.18;6.13;;;;;;;-3.17;59.53;100953.88;5031432;28;20057;-73
2022/03/01 02:56:41;;;;;;;13.13;7.18;;;;;;;-3.17;59.73;100951.34;5015012;28;20090;-74
2022/03/01 02:59:07;;;;;;;14.05;7.32;;;;;;;-3.22;59.82;100955.19;5031780;28;20037;-73
2022/03/01 03:01:33;;;;;;;15.15;7.15;;;;;;;-3.24;60.08;100951.69;4998855;28;20037;-74
2022/03/01 03:03:58;;;;;;;13.23;7.20;;;;;;;-3.22;59.68;100952.66;5015134;28;20477;-76
2022/03/01 03:06:24;;;;;;;13.05;6.32;;;;;;;-3.25;59.99;100949.03;5015208;28;20103;-75
2022/03/01 03:08:50;;;;;;;11.27;5.55;;;;;;;-3.29;60.14;100947.94;4999011;28;20088;-73
2022/03/01 03:11:16;;;;;;;15.15;5.55;;;;;;;-3.28;59.75;100946.28;4998527;28;20577;-75
2022/03/01 03:13:41;;;;;;;11.70;5.30;;;;;;;-3.32;60.07;100947.72;4998837;28;20405;-75
2022/03/01 03:16:10;;;;;;;10.27;5.50;;;;;;;-3.38;60.01;100942.22;5014731;28;20488;-74
2022/03/01 03:18:36;;;;;;;8.48;4.70;;;;;;;-3.34;60.33;100942.53;5015311;28;20044;-73
2022/03/01 03:21:02;;;;;;;10.45;4.65;;;;;;;-3.36;60.44;100938.13;5031636;28;20072;-73
2022/03/01 03:23:28;;;;;;;10.65;5.28;;;;;;;-3.35;59.99;100939.88;5032378;28;20060;-73
2022/03/01 03:25:54;;;;;;;9.48;4.72;;;;;;;-3.37;59.98;100936.34;5030670;28;20094;-73
2022/03/01 03:28:20;;;;;;;11.55;4.75;;;;;;;-3.41;60.27;100944.53;5014835;28;20033;-74
2022/03/01 03:30:46;;;;;;;12.95;4.90;;;;;;;-3.42;59.92;100940.22;5011160;28;20605;-73
2022/03/01 03:33:11;;;;;;;9.57;4.80;;;;;;;-3.44;60.21;100929.06;5028434;28;20048;-76
2022/03/01 03:35:37;;;;;;;10.00;4.60;;;;;;;-3.36;60.43;100940.66;5032129;28;20041;-76
2022/03/01 03:38:03;;;;;;;12.07;4.68;;;;;;;-3.33;60.27;100933.28;5008316;28;20034;-74
2022/03/01 03:40:29;;;;;;;8.07;4.57;;;;;;;-3.30;59.26;100937.66;5009661;28;20042;-74
2022/03/01 03:42:54;;;;;;;9.02;4.85;;;;;;;-3.37;60.02;100937.25;5012253;28;20057;-75
2022/03/01 03:45:20;;;;;;;8.80;4.75;;;;;;;-3.37;60.28;100936.34;5038046;28;20087;-75
2022/03/01 03:47:46;;;;;;;10.18;4.78;;;;;;;-3.34;60.29;100937.47;5030255;28;20044;-73
2022/03/01 03:50:11;;;;;;;10.18;4.80;;;;;;;-3.37;60.24;100931.28;5028537;28;20041;-74
2022/03/01 03:52:38;;;;;;;9.65;5.00;;;;;;;-3.40;60.00;100937.00;4994571;28;20426;-73
2022/03/01 03:55:05;;;;;;;11.02;4.68;;;;;;;-3.42;59.78;100932.63;4987295;28;20516;-74
2022/03/01 03:57:32;;;;;;;10.70;4.78;;;;;;;-3.47;60.50;100929.75;5010747;28;20077;-74
2022/03/01 03:59:58;;;;;;;9.88;5.10;;;;;;;-3.48;60.75;100916.94;5011006;28;20045;-73
2022/03/01 04:02:23;;;;;;;15.23;5.20;;;;;;;-3.45;60.13;100927.31;5011448;28;20084;-73
2022/03/01 04:04:49;;;;;;;18.20;5.18;;;;;;;-3.43;60.94;100920.72;5011125;28;20041;-74
2022/03/01 04:07:15;;;;;;;38.13;6.18;;;;;;;-3.41;60.68;100924.22;5010918;28;20042;-74
2022/03/01 04:09:40;;;;;;;13.55;5.50;;;;;;;-3.43;60.65;100918.19;5010744;28;20447;-74
2022/03/01 04:12:06;;;;;;;53.67;7.03;;;;;;;-3.44;60.68;100917.25;4994271;28;20555;-76
2022/03/01 04:14:33;;;;;;;12.25;5.07;;;;;;;-3.44;60.67;100914.72;5011695;28;20129;-74
2022/03/01 04:16:58;;;;;;;;;;;;;;;-3.49;60.85;100921.13;5011113;28;20065;-75
2022/03/01 04:19:24;;;;;;;33.58;6.28;;;;;;;-3.47;60.80;100916.19;5010704;28;19955;-76
2022/03/01 04:21:50;;;;;;;11.15;4.97;;;;;;;-3.46;60.69;100930.63;4994433;28;20088;-75
2022/03/01 04:24:15;;;;;;;50.53;6.57;;;;;;;-3.44;60.73;100924.88;5010792;28;20045;-75
2022/03/01 04:26:41;;;;;;;103.90;9.63;;;;;;;-3.43;61.05;100930.84;5010630;28;20048;-74
2022/03/01 04:29:07;;;;;;;36.85;6.53;;;;;;;-3.46;60.81;100928.09;5011374;28;20038;-75
2022/03/01 04:31:32;;;;;;;19.63;5.65;;;;;;;-3.48;60.51;100938.13;5010286;28;20386;-75
2022/03/01 04:33:58;;;;;;;15.98;6.13;;;;;;;-3.48;60.83;100935.59;4993874;28;20131;-75
2022/03/01 04:36:23;;;;;;;15.27;5.70;;;;;;;-3.49;61.10;100932.94;5010134;28;20037;-75
2022/03/01 04:38:51;;;;;;;15.50;5.40;;;;;;;-3.48;60.82;100927.06;4994229;28;20045;-74
2022/03/01 04:41:17;;;;;;;34.80;22.80;;;;;;;-3.44;61.35;100929.06;5010548;28;20596;-73
2022/03/01 04:43:42;;;;;;;17.67;5.50;;;;;;;-3.41;61.13;100939.44;4978057;28;20043;-73
2022/03/01 04:46:08;;;;;;;19.35;5.75;;;;;;;-3.36;60.46;100943.19;5011381;28;20489;-74
2022/03/01 04:48:34;;;;;;;19.35;7.68;;;;;;;-3.37;60.74;100936.34;5010380;28;20049;-75
2022/03/01 04:50:59;;;;;;;22.92;5.68;;;;;;;-3.31;61.08;100934.25;5009903;28;20430;-74
2022/03/01 04:53:25;;;;;;;29.45;6.68;;;;;;;-3.29;60.56;100931.84;5009748;28;20065;-75
2022/03/01 04:55:51;;;;;;;27.08;5.72;;;;;;;-3.26;60.97;100938.00;5030040;28;20054;-74
2022/03/01 04:58:17;;;;;;;;;;;;;;;-3.27;60.06;100945.50;5030450;28;20175;-74
2022/03/01 05:00:42;;;;;;;16.60;5.15;;;;;;;-3.22;60.27;100942.50;5029723;28;20011;-75
2022/03/01 05:03:08;;;;;;;19.38;6.25;;;;;;;-3.20;59.90;100943.53;5013324;28;20048;-75
2022/03/01 05:05:34;;;;;;;35.53;5.40;;;;;;;-3.18;60.52;100944.50;4996929;28;20037;-75
2022/03/01 05:07:59;;;;;;;26.10;7.60;;;;;;;-3.17;60.20;100943.72;5029621;28;20033;-74
2022/03/01 05:10:25;;;;;;;30.95;7.60;;;;;;;-3.14;59.87;100946.50;5013381;28;20509;-74
2022/03/01 05:12:58;;;;;;;18.80;6.65;;;;;;;-3.14;60.01;100938.88;5012942;28;20076;-74
2022/03/01 05:15:27;;;;;;;23.77;6.25;;;;;;;-3.10;59.95;100939.97;4997822;28;20064;-74
2022/03/01 05:17:53;;;;;;;24.02;5.95;;;;;;;-3.07;59.88;100942.72;5013188;28;20087;-74
2022/03/01 05:20:19;;;;;;;24.73;7.00;;;;;;;-3.03;60.09;100941.28;5013176;28;20041;-73
2022/03/01 05:22:45;;;;;;;14.20;5.53;;;;;;;-2.98;59.86;100948.44;5013446;28;20122;-74
2022/03/01 05:25:14;;;;;;;24.40;7.03;;;;;;;-2.85;59.85;100947.66;5029432;28;20037;-75
2022/03/01 05:27:41;;;;;;;29.40;6.70;;;;;;;-2.90;59.84;100948.97;4997010;28;20088;-75
2022/03/01 05:30:08;;;;;;;17.70;6.38;;;;;;;-2.89;59.35;100954.16;4997008;28;20049;-75
2022/03/01 05:32:34;;;;;;;23.92;6.93;;;;;;;-2.96;59.65;100940.94;5013412;28;20060;-75
2022/03/01 05:35:00;;;;;;;25.55;7.00;;;;;;;-2.90;59.71;100946.44;5013147;28;20041;-74
2022/03/01 05:37:26;;;;;;;17.95;6.95;;;;;;;-2.89;59.80;100945.66;5013251;28;20052;-74
2022/03/01 05:39:51;;;;;;;19.80;7.10;;;;;;;-2.85;60.29;100942.56;5012967;28;20052;-74
2022/03/01 05:42:18;;;;;;;23.75;6.85;;;;;;;-2.88;59.66;100940.72;5030936;28;20443;-79
2022/03/01 05:44:44;;;;;;;24.98;9.35;;;;;;;-2.81;59.69;100947.97;5012758;28;20120;-75
2022/03/01 05:47:09;;;;;;;21.70;5.85;;;;;;;-2.76;58.99;100944.88;5013130;28;20484;-75
2022/03/01 05:49:35;;;;;;;27.10;5.95;;;;;;;-2.74;58.76;100944.22;5013054;28;20523;-75
2022/03/01 05:52:01;;;;;;;21.70;6.78;;;;;;;-2.77;58.76;100949.06;5013093;28;20041;-75
2022/03/01 05:54:27;;;;;;;18.83;5.50;;;;;;;-2.76;58.78;100948.28;4996269;28;20070;-76
2022/03/01 05:56:52;;;;;;;24.05;5.63;;;;;;;-2.76;58.10;100958.44;4997092;28;20099;-76
2022/03/01 05:59:18;;;;;;;16.83;5.70;;;;;;;-2.78;59.08;100961.66;5030681;28;20890;-74
2022/03/01 06:01:44;;;;;;;11.40;5.45;;;;;;;-2.76;58.15;100957.56;5014101;28;20128;-78
2022/03/01 06:04:09;;;;;;;15.18;5.80;;;;;;;-2.83;58.34;100962.22;5033187;28;20052;-76
2022/03/01 06:06:35;;;;;;;20.20;5.97;;;;;;;-2.84;58.53;100960.47;5034249;28;20041;-77
2022/03/01 06:09:01;;;;;;;13.32;6.10;;;;;;;-2.84;58.14;100951.94;4999996;28;20459;-75
2022/03/01 06:11:26;;;;;;;15.93;6.82;;;;;;;-2.81;58.17;100963.19;5000011;28;20385;-75
2022/03/01 06:13:52;;;;;;;18.67;6.55;;;;;;;-2.76;57.96;100960.09;5015666;28;20048;-74
2022/03/01 06:16:18;;;;;;;20.95;7.88;;;;;;;-2.74;58.50;100959.44;5016118;28;20507;-74
2022/03/01 06:18:43;;;;;;;11.07;5.68;;;;;;;-2.69;58.25;100962.31;5033681;28;20052;-75
2022/03/01 06:21:09;;;;;;;18.05;8.05;;;;;;;-2.65;58.76;100971.91;4999833;28;20037;-75
2022/03/01 06:23:35;;;;;;;30.20;7.95;;;;;;;-2.65;57.94;100967.72;5033390;28;20041;-75
2022/03/01 06:26:01;;;;;;;18.67;7.75;;;;;;;-2.64;58.28;100959.31;5032535;28;20037;-74
2022/03/01 06:28:26;;;;;;;19.20;6.68;;;;;;;-2.62;57.84;100957.72;5015898;28;20057;-77
2022/03/01 06:30:52;;;;;;;23.77;6.70;;;;;;;-2.57;57.66;100964.03;5017135;28;20041;-75
2022/03/01 06:33:18;;;;;;;22.10;6.18;;;;;;;-2.50;58.37;100959.38;5032613;28;20048;-76
2022/03/01 06:35:44;;;;;;;15.30;6.82;;;;;;;-2.45;58.33;100953.81;4999512;28;20061;-75
2022/03/01 06:38:10;;;;;;;19.23;6.45;;;;;;;-2.41;57.52;100963.44;5033208;28;20144;-75
2022/03/01 06:40:36;;;;;;;17.58;5.90;;;;;;;-2.35;57.56;100960.41;5032544;28;20799;-75
2022/03/01 06:43:02;;;;;;;17.55;7.55;;;;;;;-2.34;57.14;100962.16;4999322;28;20042;-75
2022/03/01 06:45:28;;;;;;;19.17;6.22;;;;;;;-2.28;57.35;100957.53;5015475;28;20112;-74
2022/03/01 06:47:53;;;;;;;30.65;7.10;;;;;;;-2.21;56.70;100963.88;5032032;28;20037;-74
2022/03/01 06:50:19;;;;;;;23.75;8.10;;;;;;;-2.20;56.76;100969.09;4999527;28;20064;-77
2022/03/01 06:52:45;;;;;;;19.40;6.63;;;;;;;-2.19;56.85;100968.31;5016100;28;20048;-77
2022/03/01 06:55:11;;;;;;;21.92;6.72;;;;;;;-2.11;56.48;100967.16;5031635;28;20065;-76
2022/03/01 06:57:40;;;;;;;20.65;8.23;;;;;;;-1.99;56.10;100966.22;5015550;28;20052;-76
2022/03/01 07:00:07;;;;;;;24.98;10.68;;;;;;;-1.89;55.92;100966.03;5015312;28;20483;-75
2022/03/01 07:02:38;;;;;;;22.30;8.52;;;;;;;-1.83;55.59;100966.47;5015501;28;20084;-76
2022/03/01 07:05:08;;;;;;;18.73;6.45;;;;;;;-1.78;54.95;100975.28;5031784;28;20060;-76
2022/03/01 07:07:34;;;;;;;17.52;6.25;;;;;;;-1.76;55.16;100976.25;5015730;28;20037;-75
2022/03/01 07:10:00;;;;;;;;;;;;;;;-1.72;54.56;100970.59;5015574;28;20699;-75
2022/03/01 07:12:26;;;;;;;14.57;6.40;;;;;;;-1.66;55.29;100965.88;5031918;28;19967;-76
2022/03/01 07:14:53;;;;;;;19.20;6.13;;;;;;;-1.58;54.48;100967.28;5031283;28;20128;-74
2022/03/01 07:17:19;;;;;;;19.75;5.57;;;;;;;-1.52;54.48;100968.44;5015086;28;20049;-74
2022/03/01 07:19:45;;;;;;;26.08;6.30;;;;;;;-1.47;54.31;100967.97;5032976;28;20033;-75
2022/03/01 07:22:11;;;;;;;17.10;5.70;;;;;;;-1.50;54.07;100960.16;5014902;28;20044;-75
2022/03/01 07:24:36;;;;;;;17.88;6.35;;;;;;;-1.47;54.20;100962.88;5031414;28;20559;-74
2022/03/01 07:27:02;;;;;;;12.13;5.72;;;;;;;-1.41;53.64;100957.31;4998771;28;20099;-74
2022/03/01 07:29:30;;;;;;;16.27;6.10;;;;;;;-1.37;53.58;100960.16;5014590;28;20135;-75
2022/03/01 07:31:59;;;;;;;17.25;6.05;;;;;;;-1.28;53.15;100954.78;5032738;28;20068;-74
2022/03/01 07:34:25;;;;;;;12.75;5.78;;;;;;;-1.22;52.80;100951.75;5014762;28;20087;-74
2022/03/01 07:36:52;;;;;;;14.88;6.50;;;;;;;-1.18;52.78;100938.41;5014756;28;20044;-75
2022/03/01 07:39:17;;;;;;;;;;;;;;;-1.15;52.43;100949.66;5015041;28;20049;-75
2022/03/01 07:41:43;;;;;;;12.82;5.32;;;;;;;-1.07;51.76;100953.56;5014695;28;19924;-74
2022/03/01 07:44:10;;;;;;;15.85;5.60;;;;;;;-1.05;52.03;100946.94;5032172;28;20443;-75
2022/03/01 07:46:36;;;;;;;12.43;5.40;;;;;;;-1.01;52.08;100940.34;5030801;28;20049;-75
2022/03/01 07:49:02;;;;;;;14.10;5.20;;;;;;;-0.94;51.79;100944.16;5031361;28;20048;-75
2022/03/01 07:51:28;;;;;;;16.20;6.20;;;;;;;-0.86;51.45;100948.06;5030876;28;20037;-74
2022/03/01 07:53:53;;;;;;;11.60;5.65;;;;;;;-0.78;51.39;100940.13;5013923;28;20531;-74
2022/03/01 07:56:22;;;;;;;28.98;5.57;;;;;;;-0.73;51.13;100942.94;5014464;28;20053;-75
2022/03/01 07:58:48;;;;;;;15.43;5.47;;;;;;;-0.65;51.14;100936.63;4998949;28;20041;-75
2022/03/01 08:01:14;;;;;;;;;;;;;;;-0.59;49.78;100944.66;5015034;28;20037;-76
2022/03/01 08:03:39;;;;;;;16.33;5.50;;;;;;;-0.52;50.08;100940.81;4997910;28;20384;-74
2022/03/01 08:06:05;;;;;;;18.58;5.57;;;;;;;-0.46;49.76;100943.72;5030580;28;20099;-74
2022/03/01 08:08:31;;;;;;;18.70;6.40;;;;;;;-0.46;49.87;100937.75;5014345;28;20412;-75
2022/03/01 08:10:57;;;;;;;14.63;4.90;;;;;;;-0.44;49.82;100934.50;5030412;28;20092;-75
2022/03/01 08:13:23;;;;;;;;;;;;;;;-0.36;48.94;100937.53;5031261;28;20103;-75
2022/03/01 08:15:50;;;;;;;14.77;6.20;;;;;;;-0.32;49.04;100934.34;5013826;28;19917;-74
2022/03/01 08:18:15;;;;;;;;;;;;;;;-0.28;48.43;100929.53;5014675;28;20037;-74
2022/03/01 08:20:41;;;;;;;15.63;6.50;;;;;;;-0.17;48.80;100934.41;5030362;28;19917;-74
2022/03/01 08:23:07;;;;;;;15.90;6.65;;;;;;;-0.16;48.62;100929.38;5030420;28;20060;-76
2022/03/01 08:25:33;;;;;;;16.55;6.13;;;;;;;-0.08;48.35;100929.84;5031026;28;20041;-73
2022/03/01 08:27:59;;;;;;;13.77;5.97;;;;;;;-0.01;47.99;100927.72;5031756;28;20048;-74
2022/03/01 08:30:25;;;;;;;15.15;6.85;;;;;;;0.08;48.30;100922.28;5030025;28;20056;-74
2022/03/01 08:32:50;;;;;;;19.38;6.45;;;;;;;0.16;47.69;100912.53;4997548;28;20033;-75
2022/03/01 08:35:16;;;;;;;21.67;5.40;;;;;;;0.23;47.87;100912.97;5030248;28;20045;-73
2022/03/01 08:37:41;;;;;;;13.27;5.78;;;;;;;0.28;47.51;100918.34;5031370;28;20489;-74
2022/03/01 08:40:08;;;;;;;18.83;5.97;;;;;;;0.34;47.58;100916.13;5031128;28;20064;-75
2022/03/01 08:42:33;;;;;;;22.50;5.20;;;;;;;0.41;47.79;100925.91;5031502;28;20087;-75
2022/03/01 08:44:59;;;;;;;19.75;5.28;;;;;;;0.43;46.94;100925.97;5031317;28;20048;-75
2022/03/01 08:47:26;;;;;;;15.68;5.78;;;;;;;0.49;46.88;100911.00;5029913;28;20055;-74
2022/03/01 08:49:53;;;;;;;17.92;5.18;;;;;;;0.60;47.00;100922.72;5013446;28;20063;-75
2022/03/01 08:52:19;;;;;;;13.50;4.82;;;;;;;0.71;46.55;100911.41;4997317;28;20040;-75
2022/03/01 08:54:45;;;;;;;11.38;5.15;;;;;;;0.81;46.10;100914.47;5012984;28;20567;-74
2022/03/01 08:57:11;;;;;;;14.90;5.30;;;;;;;0.86;45.74;100906.25;4997206;28;20141;-75
2022/03/01 08:59:36;;;;;;;13.88;5.55;;;;;;;0.94;45.87;100907.56;5030715;28;20042;-74
2022/03/01 09:02:03;;;;;;;13.02;4.78;;;;;;;0.99;44.95;100902.69;5013607;28;20038;-74
2022/03/01 09:04:28;;;;;;;16.75;4.88;;;;;;;1.10;44.49;100908.38;4997225;28;20036;-75
2022/03/01 09:06:54;;;;;;;22.63;4.30;;;;;;;1.15;45.15;100902.72;5030238;28;20769;-74
2022/03/01 09:09:20;;;;;;;22.42;4.70;;;;;;;1.15;44.80;100900.16;5030656;28;20042;-75
2022/03/01 09:11:45;;;;;;;10.40;3.95;;;;;;;1.18;44.41;100902.88;5013621;28;20068;-75
2022/03/01 09:14:11;;;;;;;7.85;3.53;;;;;;;1.24;43.92;100902.34;5012817;28;20120;-77
2022/03/01 09:16:38;;;;;;;13.85;4.40;;;;;;;1.34;43.44;100901.16;5013259;28;20044;-74
2022/03/01 09:19:05;;;;;;;11.57;4.00;;;;;;;1.34;43.76;100889.25;5030834;28;20056;-75
2022/03/01 09:21:30;;;;;;;10.55;3.85;;;;;;;1.40;42.98;100886.13;5029779;28;20052;-75
2022/03/01 09:23:56;;;;;;;17.45;4.65;;;;;;;1.43;43.28;100894.84;5013122;28;20046;-74
2022/03/01 09:26:22;;;;;;;10.98;4.72;;;;;;;1.48;42.96;100882.28;5029680;28;20045;-75
2022/03/01 09:28:47;;;;;;;7.20;3.47;;;;;;;1.55;42.19;100878.34;5029193;28;20070;-74
2022/03/01 09:31:14;;;;;;;13.73;4.38;;;;;;;1.67;42.50;100886.66;5029583;28;20052;-73
2022/03/01 09:33:42;;;;;;;12.73;4.35;;;;;;;1.78;42.25;100888.06;4996448;28;20496;-75
2022/03/01 09:36:12;;;;;;;17.83;4.43;;;;;;;1.87;41.99;100875.75;5013515;28;20033;-75
2022/03/01 09:38:38;;;;;;;15.60;3.58;;;;;;;1.91;41.27;100879.34;5016960;28;20041;-74
2022/03/01 09:41:03;;;;;;;8.48;3.20;;;;;;;1.93;40.96;100886.31;5000798;28;20048;-75
2022/03/01 09:43:29;;;;;;;9.40;3.42;;;;;;;1.94;41.29;100887.19;5016614;28;20148;-75
2022/03/01 09:45:55;;;;;;;7.75;3.25;;;;;;;1.97;41.14;100885.66;5033359;28;20033;-73
2022/03/01 09:48:21;;;;;;;15.13;7.03;;;;;;;2.02;41.41;100875.66;5016589;28;20044;-75
2022/03/01 09:50:47;;;;;;;16.15;7.13;;;;;;;2.14;41.31;100885.59;5017172;28;20535;-74
2022/03/01 09:53:13;;;;;;;14.80;4.10;;;;;;;2.24;41.12;100880.13;4999758;28;20068;-74
2022/03/01 09:55:39;;;;;;;17.75;3.72;;;;;;;2.35;41.26;100884.09;5000047;28;20040;-75
2022/03/01 09:58:05;;;;;;;16.67;4.32;;;;;;;2.48;41.45;100883.88;5016599;28;20095;-75
2022/03/01 10:00:31;;;;;;;29.60;14.52;;;;;;;2.63;40.91;100870.06;5033214;28;20025;-76
2022/03/01 10:02:57;;;;;;;13.90;3.70;;;;;;;2.76;40.31;100869.81;5032916;28;20041;-76
2022/03/01 10:05:37;;;;;;;12.88;3.42;;;;;;;2.94;38.76;100872.34;5033633;28;20088;-76
2022/03/01 10:08:21;;;;;;;12.43;3.60;;;;;;;3.11;39.57;100871.41;5033315;28;20480;-75
2022/03/01 10:10:51;;;;;;;21.75;4.00;;;;;;;3.34;38.85;100869.88;5032920;28;20041;-74
2022/03/01 10:13:25;;;;;;;26.83;3.95;;;;;;;3.74;40.65;100861.34;5016840;28;20052;-74
2022/03/01 10:15:52;;;;;;;48.30;23.67;;;;;;;4.55;39.33;100854.41;5032700;28;20041;-74
2022/03/01 10:18:17;;;;;;;12.95;4.38;;;;;;;5.73;35.76;100854.47;5016308;28;20029;-76
2022/03/01 10:20:45;;;;;;;9.45;4.55;;;;;;;6.84;34.05;100846.03;5016022;28;20564;-76
2022/03/01 10:23:11;;;;;;;6.40;3.55;;;;;;;7.79;32.39;100851.25;5032802;28;20037;-73
2022/03/01 10:25:39;;;;;;;23.08;4.15;;;;;;;8.65;30.68;100843.94;5032351;28;20037;-75
2022/03/01 10:28:05;;;;;;;14.57;3.70;;;;;;;9.41;30.38;100850.72;5032439;28;20029;-75
2022/03/01 10:30:36;;;;;;;7.80;3.13;;;;;;;10.03;27.95;100842.34;5015977;28;20052;-74
2022/03/01 10:33:09;;;;;;;9.77;3.80;;;;;;;10.62;28.86;100833.78;5032400;28;20072;-74
2022/03/01 10:35:36;;;;;;;10.23;2.63;;;;;;;11.19;33.01;100833.72;5015436;28;20563;-73
2022/03/01 10:38:02;;;;;;;13.85;4.97;;;;;;;11.60;26.40;100838.50;5016058;28;20094;-73
2022/03/01 10:40:28;;;;;;;9.55;4.45;;;;;;;11.89;26.04;100827.53;5032109;28;20044;-75
2022/03/01 10:43:00;;;;;;;;;;;;;;;12.25;23.77;100829.59;5032621;28;20033;-75
2022/03/01 10:45:43;;;;;;;8.93;3.20;;;;;;;12.47;23.61;100830.63;5033512;28;19928;-74
2022/03/01 10:48:10;;;;;;;9.90;3.30;;;;;;;12.86;31.78;100826.50;5032921;28;20069;-75
2022/03/01 10:50:37;;;;;;;9.98;3.53;;;;;;;13.14;23.96;100832.72;5032133;28;20039;-75
2022/03/01 10:53:02;;;;;;;8.32;2.90;;;;;;;13.36;23.17;100825.88;5015330;28;20041;-75
2022/03/01 10:55:29;;;;;;;;;;;;;;;13.76;21.41;100823.38;5011969;28;20046;-75
2022/03/01 10:57:59;;;;;;;6.68;2.97;;;;;;;13.69;21.88;100830.28;5013300;28;20285;-75
2022/03/01 11:00:24;;;;;;;11.60;3.33;;;;;;;13.79;22.28;100815.53;5012251;28;20497;-76
2022/03/01 11:02:50;;;;;;;;;;;;;;;14.11;21.25;100825.97;5012067;28;20046;-74
2022/03/01 11:05:15;;;;;;;8.52;2.75;;;;;;;14.18;22.00;100812.09;5012373;28;19918;-77
2022/03/01 11:07:41;;;;;;;;;;;;;;;14.51;20.07;100819.03;5013350;28;20080;-74
2022/03/01 11:10:07;;;;;;;6.25;2.90;;;;;;;14.51;20.92;100819.03;5013367;28;19921;-75
2022/03/01 11:12:33;;;;;;;8.52;3.17;;;;;;;14.39;20.89;100811.22;4995646;28;20089;-74
2022/03/01 11:15:07;;;;;;;5.93;2.83;;;;;;;14.59;21.66;100813.81;4978043;28;20061;-73
2022/03/01 11:17:36;;;;;;;3.55;2.40;;;;;;;14.66;20.21;100805.97;5011628;28;20403;-76
2022/03/01 11:20:14;;;;;;;6.15;2.72;;;;;;;14.46;20.60;100802.47;5011798;28;20030;-74